sensor_id;sensor_type;location;lat;lon;timestamp;P1;durP1;ratioP1;P2;durP2;ratioP2
39344;SDS011;25061;51.954;6.996;2022-07-25T00:01:22;10.45;;;6.20;;
39344;SDS011;25061;51.954;6.996;2022-07-25T00:03:48;10.02;;;6.15;;
39344;SDS011;25061;51.954;6.996;2022-07-25T00:06:13;8.63;;;5.35;;
39344;SDS011;25061;51.954;6.996;2022-07-25T00:08:39;11.88;;;5.80;;
39344;SDS011;25061;51.954;6.996;2022-07-25T00:11:05;8.85;;;5.53;;
39344;SDS011;25061;51.954;6.996;2022-07-25T00:13:30;10.27;;;5.50;;
39344;SDS011;25061;51.954;6.996;2022-07-25T00:15:56;9.82;;;6.00;;
39344;SDS011;25061;51.954;6.996;2022-07-25T00:18:21;10.02;;;5.57;;
39344;SDS011;25061;51.954;6.996;2022-07-25T00:20:47;10.88;;;5.80;;
39344;SDS011;25061;51.954;6.996;2022-07-25T00:23:12;9.80;;;5.68;;
39344;SDS011;25061;51.954;6.996;2022-07-25T00:25:38;9.77;;;5.35;;
39344;SDS011;25061;51.954;6.996;2022-07-25T00:28:03;8.90;;;5.20;;
39344;SDS011;25061;51.954;6.996;2022-07-25T00:30:29;10.15;;;5.38;;
39344;SDS011;25061;51.954;6.996;2022-07-25T00:32:54;9.35;;;5.38;;
39344;SDS011;25061;51.954;6.996;2022-07-25T00:35:20;9.90;;;5.53;;
39344;SDS011;25061;51.954;6.996;2022-07-25T00:37:46;10.90;;;5.10;;
39344;SDS011;25061;51.954;6.996;2022-07-25T00:40:11;9.82;;;5.30;;
39344;SDS011;25061;51.954;6.996;2022-07-25T00:42:37;8.65;;;5.05;;
39344;SDS011;25061;51.954;6.996;2022-07-25T00:45:03;13.73;;;5.47;;
39344;SDS011;25061;51.954;6.996;2022-07-25T00:47:29;10.13;;;4.97;;
39344;SDS011;25061;51.954;6.996;2022-07-25T00:49:55;9.25;;;5.05;;
39344;SDS011;25061;51.954;6.996;2022-07-25T00:52:20;12.63;;;6.05;;
39344;SDS011;25061;51.954;6.996;2022-07-25T00:54:48;12.57;;;6.00;;
39344;SDS011;25061;51.954;6.996;2022-07-25T00:57:14;10.73;;;5.55;;
39344;SDS011;25061;51.954;6.996;2022-07-25T00:59:40;9.63;;;5.78;;
39344;SDS011;25061;51.954;6.996;2022-07-25T01:02:06;9.95;;;6.10;;
39344;SDS011;25061;51.954;6.996;2022-07-25T01:04:31;9.73;;;5.65;;
39344;SDS011;25061;51.954;6.996;2022-07-25T01:06:57;11.68;;;6.13;;
39344;SDS011;25061;51.954;6.996;2022-07-25T01:09:24;11.57;;;6.57;;
39344;SDS011;25061;51.954;6.996;2022-07-25T01:11:50;12.60;;;6.18;;
39344;SDS011;25061;51.954;6.996;2022-07-25T01:14:16;11.38;;;6.35;;
39344;SDS011;25061;51.954;6.996;2022-07-25T01:16:41;9.65;;;5.93;;
39344;SDS011;25061;51.954;6.996;2022-07-25T01:19:07;11.07;;;6.43;;
39344;SDS011;25061;51.954;6.996;2022-07-25T01:21:35;12.35;;;6.38;;
39344;SDS011;25061;51.954;6.996;2022-07-25T01:24:03;10.02;;;6.18;;
39344;SDS011;25061;51.954;6.996;2022-07-25T01:26:29;9.90;;;6.43;;
39344;SDS011;25061;51.954;6.996;2022-07-25T01:28:55;11.07;;;6.47;;
39344;SDS011;25061;51.954;6.996;2022-07-25T01:31:21;12.00;;;6.80;;
39344;SDS011;25061;51.954;6.996;2022-07-25T01:33:47;11.13;;;6.95;;
39344;SDS011;25061;51.954;6.996;2022-07-25T01:36:13;10.75;;;6.78;;
39344;SDS011;25061;51.954;6.996;2022-07-25T01:38:38;10.02;;;6.38;;
39344;SDS011;25061;51.954;6.996;2022-07-25T01:41:04;9.77;;;5.97;;
39344;SDS011;25061;51.954;6.996;2022-07-25T01:43:30;10.40;;;6.25;;
39344;SDS011;25061;51.954;6.996;2022-07-25T01:45:55;11.88;;;6.70;;
39344;SDS011;25061;51.954;6.996;2022-07-25T01:48:21;11.50;;;6.90;;
39344;SDS011;25061;51.954;6.996;2022-07-25T01:50:47;10.05;;;6.53;;
39344;SDS011;25061;51.954;6.996;2022-07-25T01:53:12;13.32;;;6.80;;
39344;SDS011;25061;51.954;6.996;2022-07-25T01:55:38;10.55;;;6.57;;
39344;SDS011;25061;51.954;6.996;2022-07-25T01:58:03;11.85;;;6.22;;
39344;SDS011;25061;51.954;6.996;2022-07-25T02:00:29;13.23;;;6.68;;
39344;SDS011;25061;51.954;6.996;2022-07-25T02:02:54;9.93;;;6.90;;
39344;SDS011;25061;51.954;6.996;2022-07-25T02:05:39;12.55;;;7.13;;
39344;SDS011;25061;51.954;6.996;2022-07-25T02:08:04;16.75;;;7.40;;
39344;SDS011;25061;51.954;6.996;2022-07-25T02:10:30;10.65;;;6.60;;
39344;SDS011;25061;51.954;6.996;2022-07-25T02:12:56;10.60;;;7.07;;
39344;SDS011;25061;51.954;6.996;2022-07-25T02:15:21;11.07;;;6.88;;
39344;SDS011;25061;51.954;6.996;2022-07-25T02:17:47;10.88;;;6.80;;
39344;SDS011;25061;51.954;6.996;2022-07-25T02:20:13;10.82;;;6.68;;
39344;SDS011;25061;51.954;6.996;2022-07-25T02:22:38;10.88;;;6.60;;
39344;SDS011;25061;51.954;6.996;2022-07-25T02:25:04;11.88;;;6.65;;
39344;SDS011;25061;51.954;6.996;2022-07-25T02:27:30;9.75;;;6.57;;
39344;SDS011;25061;51.954;6.996;2022-07-25T02:29:55;10.68;;;6.55;;
39344;SDS011;25061;51.954;6.996;2022-07-25T02:32:21;10.75;;;6.88;;
39344;SDS011;25061;51.954;6.996;2022-07-25T02:34:47;12.80;;;7.00;;
39344;SDS011;25061;51.954;6.996;2022-07-25T02:37:12;10.68;;;6.13;;
39344;SDS011;25061;51.954;6.996;2022-07-25T02:39:38;11.52;;;6.45;;
39344;SDS011;25061;51.954;6.996;2022-07-25T02:42:03;9.82;;;6.43;;
39344;SDS011;25061;51.954;6.996;2022-07-25T02:44:29;13.85;;;7.13;;
39344;SDS011;25061;51.954;6.996;2022-07-25T02:46:54;9.95;;;6.78;;
39344;SDS011;25061;51.954;6.996;2022-07-25T02:49:20;11.32;;;7.20;;
39344;SDS011;25061;51.954;6.996;2022-07-25T02:51:46;9.50;;;6.68;;
39344;SDS011;25061;51.954;6.996;2022-07-25T02:54:11;11.43;;;6.93;;
39344;SDS011;25061;51.954;6.996;2022-07-25T02:56:37;9.65;;;6.57;;
39344;SDS011;25061;51.954;6.996;2022-07-25T02:59:03;10.05;;;7.03;;
39344;SDS011;25061;51.954;6.996;2022-07-25T03:01:28;11.13;;;7.03;;
39344;SDS011;25061;51.954;6.996;2022-07-25T03:03:54;12.05;;;7.30;;
39344;SDS011;25061;51.954;6.996;2022-07-25T03:06:20;11.65;;;7.32;;
39344;SDS011;25061;51.954;6.996;2022-07-25T03:08:45;11.20;;;6.78;;
39344;SDS011;25061;51.954;6.996;2022-07-25T03:11:11;10.85;;;6.53;;
39344;SDS011;25061;51.954;6.996;2022-07-25T03:13:37;10.73;;;7.10;;
39344;SDS011;25061;51.954;6.996;2022-07-25T03:16:03;10.68;;;6.82;;
39344;SDS011;25061;51.954;6.996;2022-07-25T03:18:29;9.50;;;6.13;;
39344;SDS011;25061;51.954;6.996;2022-07-25T03:20:55;10.35;;;6.00;;
39344;SDS011;25061;51.954;6.996;2022-07-25T03:23:20;12.48;;;7.10;;
39344;SDS011;25061;51.954;6.996;2022-07-25T03:25:46;12.88;;;6.97;;
39344;SDS011;25061;51.954;6.996;2022-07-25T03:28:11;10.30;;;6.15;;
39344;SDS011;25061;51.954;6.996;2022-07-25T03:30:37;10.63;;;6.50;;
39344;SDS011;25061;51.954;6.996;2022-07-25T03:33:02;9.73;;;6.63;;
39344;SDS011;25061;51.954;6.996;2022-07-25T03:35:28;12.57;;;6.45;;
39344;SDS011;25061;51.954;6.996;2022-07-25T03:37:53;10.93;;;6.70;;
39344;SDS011;25061;51.954;6.996;2022-07-25T03:40:19;11.13;;;6.65;;
39344;SDS011;25061;51.954;6.996;2022-07-25T03:42:45;12.77;;;7.00;;
39344;SDS011;25061;51.954;6.996;2022-07-25T03:45:10;11.43;;;6.95;;
39344;SDS011;25061;51.954;6.996;2022-07-25T03:47:36;12.82;;;7.05;;
39344;SDS011;25061;51.954;6.996;2022-07-25T03:50:02;11.70;;;7.22;;
39344;SDS011;25061;51.954;6.996;2022-07-25T03:52:28;11.95;;;6.38;;
39344;SDS011;25061;51.954;6.996;2022-07-25T03:54:54;10.57;;;6.53;;
39344;SDS011;25061;51.954;6.996;2022-07-25T03:57:19;10.13;;;5.80;;
39344;SDS011;25061;51.954;6.996;2022-07-25T03:59:45;9.95;;;6.47;;
39344;SDS011;25061;51.954;6.996;2022-07-25T04:02:10;10.35;;;6.72;;
39344;SDS011;25061;51.954;6.996;2022-07-25T04:04:36;12.38;;;6.32;;
39344;SDS011;25061;51.954;6.996;2022-07-25T04:07:02;10.95;;;6.18;;
39344;SDS011;25061;51.954;6.996;2022-07-25T04:09:27;12.10;;;6.82;;
39344;SDS011;25061;51.954;6.996;2022-07-25T04:11:53;11.88;;;6.57;;
39344;SDS011;25061;51.954;6.996;2022-07-25T04:14:18;10.35;;;6.38;;
39344;SDS011;25061;51.954;6.996;2022-07-25T04:16:44;11.43;;;6.68;;
39344;SDS011;25061;51.954;6.996;2022-07-25T04:19:09;9.52;;;5.97;;
39344;SDS011;25061;51.954;6.996;2022-07-25T04:21:35;10.07;;;6.65;;
39344;SDS011;25061;51.954;6.996;2022-07-25T04:24:00;12.23;;;6.30;;
39344;SDS011;25061;51.954;6.996;2022-07-25T04:26:26;9.98;;;6.40;;
39344;SDS011;25061;51.954;6.996;2022-07-25T04:28:52;11.18;;;6.75;;
39344;SDS011;25061;51.954;6.996;2022-07-25T04:31:17;13.15;;;6.47;;
39344;SDS011;25061;51.954;6.996;2022-07-25T04:33:43;11.52;;;6.78;;
39344;SDS011;25061;51.954;6.996;2022-07-25T04:36:10;11.15;;;6.43;;
39344;SDS011;25061;51.954;6.996;2022-07-25T04:38:35;16.13;;;6.65;;
39344;SDS011;25061;51.954;6.996;2022-07-25T04:41:01;10.63;;;6.57;;
39344;SDS011;25061;51.954;6.996;2022-07-25T04:43:27;13.27;;;6.05;;
39344;SDS011;25061;51.954;6.996;2022-07-25T04:45:53;17.73;;;7.15;;
39344;SDS011;25061;51.954;6.996;2022-07-25T04:48:18;13.10;;;6.35;;
39344;SDS011;25061;51.954;6.996;2022-07-25T04:50:44;10.57;;;6.35;;
39344;SDS011;25061;51.954;6.996;2022-07-25T04:53:10;12.52;;;6.57;;
39344;SDS011;25061;51.954;6.996;2022-07-25T04:55:35;11.38;;;6.60;;
39344;SDS011;25061;51.954;6.996;2022-07-25T04:58:02;12.70;;;6.60;;
39344;SDS011;25061;51.954;6.996;2022-07-25T05:00:28;12.13;;;6.60;;
39344;SDS011;25061;51.954;6.996;2022-07-25T05:02:55;9.02;;;5.95;;
39344;SDS011;25061;51.954;6.996;2022-07-25T05:05:21;12.35;;;6.40;;
39344;SDS011;25061;51.954;6.996;2022-07-25T05:07:46;11.43;;;6.35;;
39344;SDS011;25061;51.954;6.996;2022-07-25T05:10:12;13.63;;;7.20;;
39344;SDS011;25061;51.954;6.996;2022-07-25T05:12:37;10.00;;;6.15;;
39344;SDS011;25061;51.954;6.996;2022-07-25T05:15:03;13.35;;;6.15;;
39344;SDS011;25061;51.954;6.996;2022-07-25T05:17:30;11.73;;;6.30;;
39344;SDS011;25061;51.954;6.996;2022-07-25T05:19:58;11.85;;;6.68;;
39344;SDS011;25061;51.954;6.996;2022-07-25T05:22:24;10.80;;;5.93;;
39344;SDS011;25061;51.954;6.996;2022-07-25T05:24:49;10.70;;;6.68;;
39344;SDS011;25061;51.954;6.996;2022-07-25T05:27:15;11.80;;;7.13;;
39344;SDS011;25061;51.954;6.996;2022-07-25T05:29:41;9.77;;;6.40;;
39344;SDS011;25061;51.954;6.996;2022-07-25T05:32:07;13.68;;;6.50;;
39344;SDS011;25061;51.954;6.996;2022-07-25T05:34:32;11.90;;;5.82;;
39344;SDS011;25061;51.954;6.996;2022-07-25T05:36:58;13.48;;;6.20;;
39344;SDS011;25061;51.954;6.996;2022-07-25T05:39:24;10.07;;;5.75;;
39344;SDS011;25061;51.954;6.996;2022-07-25T05:41:49;11.55;;;5.95;;
39344;SDS011;25061;51.954;6.996;2022-07-25T05:44:15;11.10;;;5.63;;
39344;SDS011;25061;51.954;6.996;2022-07-25T05:46:40;8.48;;;5.35;;
39344;SDS011;25061;51.954;6.996;2022-07-25T05:49:06;11.10;;;5.65;;
39344;SDS011;25061;51.954;6.996;2022-07-25T05:51:32;10.95;;;5.55;;
39344;SDS011;25061;51.954;6.996;2022-07-25T05:53:57;12.15;;;5.80;;
39344;SDS011;25061;51.954;6.996;2022-07-25T05:56:23;9.60;;;5.13;;
39344;SDS011;25061;51.954;6.996;2022-07-25T05:58:48;10.73;;;6.10;;
39344;SDS011;25061;51.954;6.996;2022-07-25T06:01:14;9.55;;;5.30;;
39344;SDS011;25061;51.954;6.996;2022-07-25T06:03:40;9.80;;;5.72;;
39344;SDS011;25061;51.954;6.996;2022-07-25T06:06:06;10.30;;;4.85;;
39344;SDS011;25061;51.954;6.996;2022-07-25T06:08:33;10.02;;;5.05;;
39344;SDS011;25061;51.954;6.996;2022-07-25T06:11:03;11.82;;;4.82;;
39344;SDS011;25061;51.954;6.996;2022-07-25T06:13:30;10.23;;;5.25;;
39344;SDS011;25061;51.954;6.996;2022-07-25T06:15:56;9.40;;;5.00;;
39344;SDS011;25061;51.954;6.996;2022-07-25T06:18:22;8.75;;;4.93;;
39344;SDS011;25061;51.954;6.996;2022-07-25T06:20:48;9.65;;;5.32;;
39344;SDS011;25061;51.954;6.996;2022-07-25T06:23:14;9.40;;;5.10;;
39344;SDS011;25061;51.954;6.996;2022-07-25T06:25:40;8.68;;;4.88;;
39344;SDS011;25061;51.954;6.996;2022-07-25T06:28:05;8.55;;;4.85;;
39344;SDS011;25061;51.954;6.996;2022-07-25T06:30:31;9.18;;;4.53;;
39344;SDS011;25061;51.954;6.996;2022-07-25T06:32:56;8.98;;;4.57;;
39344;SDS011;25061;51.954;6.996;2022-07-25T06:35:22;8.85;;;4.43;;
39344;SDS011;25061;51.954;6.996;2022-07-25T06:37:48;8.27;;;4.65;;
39344;SDS011;25061;51.954;6.996;2022-07-25T06:40:13;9.27;;;4.40;;
39344;SDS011;25061;51.954;6.996;2022-07-25T06:42:40;9.77;;;4.93;;
39344;SDS011;25061;51.954;6.996;2022-07-25T06:45:07;9.20;;;4.40;;
39344;SDS011;25061;51.954;6.996;2022-07-25T06:47:35;10.73;;;4.25;;
39344;SDS011;25061;51.954;6.996;2022-07-25T06:50:05;8.15;;;4.18;;
39344;SDS011;25061;51.954;6.996;2022-07-25T06:52:32;9.98;;;4.50;;
39344;SDS011;25061;51.954;6.996;2022-07-25T06:54:58;14.68;;;4.55;;
39344;SDS011;25061;51.954;6.996;2022-07-25T06:57:24;9.32;;;4.63;;
39344;SDS011;25061;51.954;6.996;2022-07-25T06:59:49;13.20;;;4.55;;
39344;SDS011;25061;51.954;6.996;2022-07-25T07:02:15;8.82;;;4.30;;
39344;SDS011;25061;51.954;6.996;2022-07-25T07:04:41;9.00;;;4.32;;
39344;SDS011;25061;51.954;6.996;2022-07-25T07:07:06;11.70;;;4.53;;
39344;SDS011;25061;51.954;6.996;2022-07-25T07:09:32;13.68;;;4.88;;
39344;SDS011;25061;51.954;6.996;2022-07-25T07:11:58;12.35;;;4.72;;
39344;SDS011;25061;51.954;6.996;2022-07-25T07:14:23;10.52;;;4.45;;
39344;SDS011;25061;51.954;6.996;2022-07-25T07:16:49;8.57;;;3.72;;
39344;SDS011;25061;51.954;6.996;2022-07-25T07:19:14;8.65;;;4.38;;
39344;SDS011;25061;51.954;6.996;2022-07-25T07:21:40;8.23;;;4.60;;
39344;SDS011;25061;51.954;6.996;2022-07-25T07:24:06;12.05;;;5.10;;
39344;SDS011;25061;51.954;6.996;2022-07-25T07:26:32;9.48;;;4.60;;
39344;SDS011;25061;51.954;6.996;2022-07-25T07:28:58;11.80;;;4.90;;
39344;SDS011;25061;51.954;6.996;2022-07-25T07:31:24;8.48;;;4.30;;
39344;SDS011;25061;51.954;6.996;2022-07-25T07:33:50;8.48;;;4.40;;
39344;SDS011;25061;51.954;6.996;2022-07-25T07:36:16;10.43;;;4.82;;
39344;SDS011;25061;51.954;6.996;2022-07-25T07:38:42;9.77;;;4.15;;
39344;SDS011;25061;51.954;6.996;2022-07-25T07:41:09;9.10;;;4.72;;
39344;SDS011;25061;51.954;6.996;2022-07-25T07:43:34;9.25;;;4.40;;
39344;SDS011;25061;51.954;6.996;2022-07-25T07:46:00;10.88;;;4.10;;
39344;SDS011;25061;51.954;6.996;2022-07-25T07:48:26;9.27;;;4.50;;
39344;SDS011;25061;51.954;6.996;2022-07-25T07:50:55;8.48;;;4.43;;
39344;SDS011;25061;51.954;6.996;2022-07-25T07:53:21;9.80;;;4.55;;
39344;SDS011;25061;51.954;6.996;2022-07-25T07:55:47;10.63;;;4.88;;
39344;SDS011;25061;51.954;6.996;2022-07-25T07:58:19;8.55;;;3.85;;
39344;SDS011;25061;51.954;6.996;2022-07-25T08:00:45;9.32;;;4.70;;
39344;SDS011;25061;51.954;6.996;2022-07-25T08:03:16;12.05;;;4.88;;
39344;SDS011;25061;51.954;6.996;2022-07-25T08:05:43;13.75;;;5.00;;
39344;SDS011;25061;51.954;6.996;2022-07-25T08:08:10;10.75;;;4.75;;
39344;SDS011;25061;51.954;6.996;2022-07-25T08:10:39;8.98;;;4.43;;
39344;SDS011;25061;51.954;6.996;2022-07-25T08:13:26;9.50;;;4.60;;
39344;SDS011;25061;51.954;6.996;2022-07-25T08:15:55;16.17;;;5.75;;
39344;SDS011;25061;51.954;6.996;2022-07-25T08:18:23;11.68;;;4.70;;
39344;SDS011;25061;51.954;6.996;2022-07-25T08:20:49;9.55;;;4.85;;
39344;SDS011;25061;51.954;6.996;2022-07-25T08:23:16;9.40;;;4.35;;
39344;SDS011;25061;51.954;6.996;2022-07-25T08:25:42;10.52;;;4.63;;
39344;SDS011;25061;51.954;6.996;2022-07-25T08:28:08;8.85;;;4.72;;
39344;SDS011;25061;51.954;6.996;2022-07-25T08:30:35;10.55;;;4.95;;
39344;SDS011;25061;51.954;6.996;2022-07-25T08:33:03;11.40;;;4.95;;
39344;SDS011;25061;51.954;6.996;2022-07-25T08:35:30;10.20;;;4.68;;
39344;SDS011;25061;51.954;6.996;2022-07-25T08:37:57;11.32;;;4.93;;
39344;SDS011;25061;51.954;6.996;2022-07-25T08:40:25;9.70;;;4.75;;
39344;SDS011;25061;51.954;6.996;2022-07-25T08:42:52;7.70;;;4.50;;
39344;SDS011;25061;51.954;6.996;2022-07-25T08:45:22;9.13;;;4.68;;
39344;SDS011;25061;51.954;6.996;2022-07-25T08:47:49;7.53;;;4.28;;
39344;SDS011;25061;51.954;6.996;2022-07-25T08:50:20;8.60;;;4.90;;
39344;SDS011;25061;51.954;6.996;2022-07-25T08:52:52;10.60;;;4.55;;
39344;SDS011;25061;51.954;6.996;2022-07-25T08:55:19;10.02;;;5.20;;
39344;SDS011;25061;51.954;6.996;2022-07-25T08:57:46;10.05;;;4.75;;
39344;SDS011;25061;51.954;6.996;2022-07-25T09:00:15;9.27;;;4.80;;
39344;SDS011;25061;51.954;6.996;2022-07-25T09:02:49;8.40;;;4.82;;
39344;SDS011;25061;51.954;6.996;2022-07-25T09:05:16;12.55;;;5.20;;
39344;SDS011;25061;51.954;6.996;2022-07-25T09:07:44;9.80;;;5.05;;
39344;SDS011;25061;51.954;6.996;2022-07-25T09:10:13;9.52;;;5.00;;
39344;SDS011;25061;51.954;6.996;2022-07-25T09:12:56;10.77;;;4.50;;
39344;SDS011;25061;51.954;6.996;2022-07-25T09:17:58;7.70;;;4.60;;
39344;SDS011;25061;51.954;6.996;2022-07-25T09:20:43;10.73;;;4.88;;
39344;SDS011;25061;51.954;6.996;2022-07-25T09:23:30;8.43;;;4.88;;
39344;SDS011;25061;51.954;6.996;2022-07-25T09:28:45;11.32;;;5.47;;
39344;SDS011;25061;51.954;6.996;2022-07-25T09:31:13;8.82;;;4.93;;
39344;SDS011;25061;51.954;6.996;2022-07-25T09:33:53;11.82;;;5.80;;
39344;SDS011;25061;51.954;6.996;2022-07-25T09:36:20;9.95;;;5.70;;
39344;SDS011;25061;51.954;6.996;2022-07-25T09:38:53;9.15;;;5.00;;
39344;SDS011;25061;51.954;6.996;2022-07-25T09:41:19;10.18;;;5.97;;
39344;SDS011;25061;51.954;6.996;2022-07-25T09:43:45;10.77;;;5.22;;
39344;SDS011;25061;51.954;6.996;2022-07-25T09:46:11;9.43;;;5.85;;
39344;SDS011;25061;51.954;6.996;2022-07-25T09:48:38;8.63;;;5.07;;
39344;SDS011;25061;51.954;6.996;2022-07-25T09:51:05;10.55;;;5.45;;
39344;SDS011;25061;51.954;6.996;2022-07-25T09:53:31;13.30;;;6.43;;
39344;SDS011;25061;51.954;6.996;2022-07-25T09:55:58;9.68;;;5.53;;
39344;SDS011;25061;51.954;6.996;2022-07-25T09:58:24;10.18;;;6.25;;
39344;SDS011;25061;51.954;6.996;2022-07-25T10:00:51;9.88;;;6.50;;
39344;SDS011;25061;51.954;6.996;2022-07-25T10:05:56;10.45;;;6.53;;
39344;SDS011;25061;51.954;6.996;2022-07-25T10:08:26;10.60;;;5.97;;
39344;SDS011;25061;51.954;6.996;2022-07-25T10:10:53;15.15;;;6.03;;
39344;SDS011;25061;51.954;6.996;2022-07-25T10:13:29;13.15;;;6.20;;
39344;SDS011;25061;51.954;6.996;2022-07-25T10:15:56;10.25;;;5.25;;
39344;SDS011;25061;51.954;6.996;2022-07-25T10:18:23;9.50;;;5.07;;
39344;SDS011;25061;51.954;6.996;2022-07-25T10:20:53;9.65;;;5.00;;
39344;SDS011;25061;51.954;6.996;2022-07-25T10:23:21;10.20;;;5.00;;
39344;SDS011;25061;51.954;6.996;2022-07-25T10:26:13;9.25;;;5.00;;
39344;SDS011;25061;51.954;6.996;2022-07-25T10:28:47;9.77;;;5.30;;
39344;SDS011;25061;51.954;6.996;2022-07-25T10:31:18;8.88;;;4.45;;
39344;SDS011;25061;51.954;6.996;2022-07-25T10:36:17;8.82;;;4.60;;
39344;SDS011;25061;51.954;6.996;2022-07-25T10:38:45;16.20;;;5.28;;
39344;SDS011;25061;51.954;6.996;2022-07-25T10:41:14;8.68;;;4.20;;
39344;SDS011;25061;51.954;6.996;2022-07-25T10:43:42;7.82;;;3.95;;
39344;SDS011;25061;51.954;6.996;2022-07-25T10:46:10;7.45;;;3.53;;
39344;SDS011;25061;51.954;6.996;2022-07-25T10:48:42;7.35;;;3.80;;
39344;SDS011;25061;51.954;6.996;2022-07-25T10:51:10;11.05;;;3.80;;
39344;SDS011;25061;51.954;6.996;2022-07-25T10:56:13;6.70;;;3.35;;
39344;SDS011;25061;51.954;6.996;2022-07-25T11:01:13;6.60;;;2.90;;
39344;SDS011;25061;51.954;6.996;2022-07-25T11:03:43;5.80;;;2.88;;
39344;SDS011;25061;51.954;6.996;2022-07-25T11:06:13;5.90;;;2.47;;
39344;SDS011;25061;51.954;6.996;2022-07-25T11:08:39;6.18;;;2.90;;
39344;SDS011;25061;51.954;6.996;2022-07-25T11:11:06;6.72;;;2.90;;
39344;SDS011;25061;51.954;6.996;2022-07-25T11:13:39;6.28;;;3.00;;
39344;SDS011;25061;51.954;6.996;2022-07-25T11:16:06;8.82;;;3.00;;
39344;SDS011;25061;51.954;6.996;2022-07-25T11:18:33;8.32;;;2.88;;
39344;SDS011;25061;51.954;6.996;2022-07-25T11:21:00;6.22;;;3.03;;
39344;SDS011;25061;51.954;6.996;2022-07-25T11:23:27;6.75;;;2.83;;
39344;SDS011;25061;51.954;6.996;2022-07-25T11:26:03;6.43;;;2.55;;
39344;SDS011;25061;51.954;6.996;2022-07-25T11:28:40;9.40;;;3.00;;
39344;SDS011;25061;51.954;6.996;2022-07-25T11:31:08;6.97;;;2.60;;
39344;SDS011;25061;51.954;6.996;2022-07-25T11:33:34;7.10;;;2.58;;
39344;SDS011;25061;51.954;6.996;2022-07-25T11:36:01;8.20;;;2.67;;
39344;SDS011;25061;51.954;6.996;2022-07-25T11:38:27;10.57;;;3.15;;
39344;SDS011;25061;51.954;6.996;2022-07-25T11:40:53;11.38;;;3.35;;
39344;SDS011;25061;51.954;6.996;2022-07-25T11:43:22;6.50;;;3.15;;
39344;SDS011;25061;51.954;6.996;2022-07-25T11:45:55;5.30;;;2.53;;
39344;SDS011;25061;51.954;6.996;2022-07-25T11:48:28;7.95;;;2.33;;
39344;SDS011;25061;51.954;6.996;2022-07-25T11:51:06;7.22;;;2.35;;
39344;SDS011;25061;51.954;6.996;2022-07-25T11:53:37;6.38;;;2.00;;
39344;SDS011;25061;51.954;6.996;2022-07-25T11:56:15;3.90;;;1.80;;
39344;SDS011;25061;51.954;6.996;2022-07-25T11:58:43;5.88;;;2.20;;
39344;SDS011;25061;51.954;6.996;2022-07-25T12:01:22;6.78;;;1.85;;
39344;SDS011;25061;51.954;6.996;2022-07-25T12:03:49;6.38;;;2.08;;
39344;SDS011;25061;51.954;6.996;2022-07-25T12:06:15;5.03;;;1.63;;
39344;SDS011;25061;51.954;6.996;2022-07-25T12:08:41;6.88;;;1.40;;
39344;SDS011;25061;51.954;6.996;2022-07-25T12:11:17;5.82;;;1.83;;
39344;SDS011;25061;51.954;6.996;2022-07-25T12:13:44;10.50;;;1.67;;
39344;SDS011;25061;51.954;6.996;2022-07-25T12:16:10;3.33;;;1.30;;
39344;SDS011;25061;51.954;6.996;2022-07-25T12:18:36;3.22;;;1.27;;
39344;SDS011;25061;51.954;6.996;2022-07-25T12:21:02;3.97;;;1.55;;
39344;SDS011;25061;51.954;6.996;2022-07-25T12:23:28;4.88;;;1.90;;
39344;SDS011;25061;51.954;6.996;2022-07-25T12:25:53;4.97;;;1.50;;
39344;SDS011;25061;51.954;6.996;2022-07-25T12:28:19;5.38;;;1.90;;
39344;SDS011;25061;51.954;6.996;2022-07-25T12:30:45;4.85;;;1.35;;
39344;SDS011;25061;51.954;6.996;2022-07-25T12:33:11;5.18;;;1.48;;
39344;SDS011;25061;51.954;6.996;2022-07-25T12:35:38;4.70;;;1.77;;
39344;SDS011;25061;51.954;6.996;2022-07-25T12:38:05;5.40;;;1.50;;
39344;SDS011;25061;51.954;6.996;2022-07-25T12:40:30;6.20;;;1.88;;
39344;SDS011;25061;51.954;6.996;2022-07-25T12:42:56;4.03;;;1.50;;
39344;SDS011;25061;51.954;6.996;2022-07-25T12:45:23;3.88;;;1.48;;
39344;SDS011;25061;51.954;6.996;2022-07-25T12:47:48;4.18;;;1.70;;
39344;SDS011;25061;51.954;6.996;2022-07-25T12:50:14;6.72;;;1.70;;
39344;SDS011;25061;51.954;6.996;2022-07-25T12:52:42;4.72;;;1.40;;
39344;SDS011;25061;51.954;6.996;2022-07-25T12:55:10;3.80;;;1.50;;
39344;SDS011;25061;51.954;6.996;2022-07-25T12:57:38;4.65;;;1.35;;
39344;SDS011;25061;51.954;6.996;2022-07-25T13:00:04;4.68;;;1.60;;
39344;SDS011;25061;51.954;6.996;2022-07-25T13:02:31;4.57;;;1.80;;
39344;SDS011;25061;51.954;6.996;2022-07-25T13:04:57;3.83;;;1.33;;
39344;SDS011;25061;51.954;6.996;2022-07-25T13:07:22;7.68;;;1.65;;
39344;SDS011;25061;51.954;6.996;2022-07-25T13:09:48;6.45;;;1.77;;
39344;SDS011;25061;51.954;6.996;2022-07-25T13:12:13;6.18;;;1.63;;
39344;SDS011;25061;51.954;6.996;2022-07-25T13:14:39;6.95;;;1.83;;
39344;SDS011;25061;51.954;6.996;2022-07-25T13:17:05;7.50;;;1.65;;
39344;SDS011;25061;51.954;6.996;2022-07-25T13:19:31;5.50;;;1.40;;
39344;SDS011;25061;51.954;6.996;2022-07-25T13:21:56;3.72;;;1.40;;
39344;SDS011;25061;51.954;6.996;2022-07-25T13:24:22;4.97;;;1.52;;
39344;SDS011;25061;51.954;6.996;2022-07-25T13:26:48;7.30;;;1.95;;
39344;SDS011;25061;51.954;6.996;2022-07-25T13:29:13;8.00;;;1.65;;
39344;SDS011;25061;51.954;6.996;2022-07-25T13:31:39;8.05;;;1.60;;
39344;SDS011;25061;51.954;6.996;2022-07-25T13:34:06;5.20;;;1.80;;
39344;SDS011;25061;51.954;6.996;2022-07-25T13:36:32;4.38;;;1.60;;
39344;SDS011;25061;51.954;6.996;2022-07-25T13:38:59;5.30;;;1.60;;
39344;SDS011;25061;51.954;6.996;2022-07-25T13:41:24;4.88;;;1.67;;
39344;SDS011;25061;51.954;6.996;2022-07-25T13:43:50;5.68;;;1.73;;
39344;SDS011;25061;51.954;6.996;2022-07-25T13:46:16;6.15;;;1.80;;
39344;SDS011;25061;51.954;6.996;2022-07-25T13:48:42;6.47;;;1.92;;
39344;SDS011;25061;51.954;6.996;2022-07-25T13:51:07;4.90;;;1.80;;
39344;SDS011;25061;51.954;6.996;2022-07-25T13:53:33;8.20;;;2.20;;
39344;SDS011;25061;51.954;6.996;2022-07-25T13:55:58;7.57;;;1.80;;
39344;SDS011;25061;51.954;6.996;2022-07-25T13:58:24;9.63;;;2.40;;
39344;SDS011;25061;51.954;6.996;2022-07-25T14:00:51;8.35;;;1.77;;
39344;SDS011;25061;51.954;6.996;2022-07-25T14:03:16;6.13;;;1.52;;
39344;SDS011;25061;51.954;6.996;2022-07-25T14:05:42;8.80;;;2.20;;
39344;SDS011;25061;51.954;6.996;2022-07-25T14:08:08;6.60;;;1.80;;
39344;SDS011;25061;51.954;6.996;2022-07-25T14:10:33;8.60;;;1.75;;
39344;SDS011;25061;51.954;6.996;2022-07-25T14:12:59;5.68;;;1.75;;
39344;SDS011;25061;51.954;6.996;2022-07-25T14:15:25;7.30;;;2.00;;
39344;SDS011;25061;51.954;6.996;2022-07-25T14:17:51;8.57;;;1.80;;
39344;SDS011;25061;51.954;6.996;2022-07-25T14:20:16;8.05;;;2.17;;
39344;SDS011;25061;51.954;6.996;2022-07-25T14:22:42;7.93;;;1.95;;
39344;SDS011;25061;51.954;6.996;2022-07-25T14:25:08;9.57;;;1.83;;
39344;SDS011;25061;51.954;6.996;2022-07-25T14:27:34;5.82;;;1.88;;
39344;SDS011;25061;51.954;6.996;2022-07-25T14:30:01;7.82;;;2.03;;
39344;SDS011;25061;51.954;6.996;2022-07-25T14:32:28;11.15;;;2.40;;
39344;SDS011;25061;51.954;6.996;2022-07-25T14:34:54;7.22;;;2.45;;
39344;SDS011;25061;51.954;6.996;2022-07-25T14:37:19;6.40;;;2.00;;
39344;SDS011;25061;51.954;6.996;2022-07-25T14:39:46;8.57;;;2.20;;
39344;SDS011;25061;51.954;6.996;2022-07-25T14:42:12;7.13;;;2.20;;
39344;SDS011;25061;51.954;6.996;2022-07-25T14:44:38;9.88;;;2.70;;
39344;SDS011;25061;51.954;6.996;2022-07-25T14:47:04;9.60;;;2.60;;
39344;SDS011;25061;51.954;6.996;2022-07-25T14:49:31;9.18;;;2.38;;
39344;SDS011;25061;51.954;6.996;2022-07-25T14:51:56;12.85;;;2.50;;
39344;SDS011;25061;51.954;6.996;2022-07-25T14:54:22;8.10;;;2.38;;